sensor_id;sensor_type;location;lat;lon;timestamp;pressure;altitude;pressure_sealevel;temperature;humidity
75089;BME280;63673;49.928;8.150;2024-03-25T00:00:11;983.22;;;5.17;100
75089;BME280;63673;49.928;8.150;2024-03-25T00:00:41;983.17;;;5.17;100
75089;BME280;63673;49.928;8.150;2024-03-25T00:01:12;983.17;;;5.17;100
75089;BME280;63673;49.928;8.150;2024-03-25T00:01:43;983.14;;;5.16;100
75089;BME280;63673;49.928;8.150;2024-03-25T00:02:14;983.14;;;5.16;100
75089;BME280;63673;49.928;8.150;2024-03-25T00:02:45;983.14;;;5.15;100
75089;BME280;63673;49.928;8.150;2024-03-25T00:03:16;983.14;;;5.15;100
75089;BME280;63673;49.928;8.150;2024-03-25T00:03:46;983.16;;;5.15;100
75089;BME280;63673;49.928;8.150;2024-03-25T00:04:17;983.16;;;5.15;100
75089;BME280;63673;49.928;8.150;2024-03-25T00:04:48;983.16;;;5.13;100
75089;BME280;63673;49.928;8.150;2024-03-25T00:05:19;983.16;;;5.13;100
75089;BME280;63673;49.928;8.150;2024-03-25T00:05:50;983.14;;;5.11;100
75089;BME280;63673;49.928;8.150;2024-03-25T00:06:21;983.14;;;5.11;100
75089;BME280;63673;49.928;8.150;2024-03-25T00:06:52;983.14;;;5.09;100
75089;BME280;63673;49.928;8.150;2024-03-25T00:07:23;983.14;;;5.09;100
75089;BME280;63673;49.928;8.150;2024-03-25T00:07:54;983.16;;;5.07;100
75089;BME280;63673;49.928;8.150;2024-03-25T00:08:24;983.16;;;5.07;100
75089;BME280;63673;49.928;8.150;2024-03-25T00:08:55;983.16;;;5.05;100
75089;BME280;63673;49.928;8.150;2024-03-25T00:09:26;983.16;;;5.05;100
75089;BME280;63673;49.928;8.150;2024-03-25T00:09:57;983.16;;;5.03;100
75089;BME280;63673;49.928;8.150;2024-03-25T00:10:28;983.16;;;5.03;100
75089;BME280;63673;49.928;8.150;2024-03-25T00:10:59;983.17;;;5.02;100
75089;BME280;63673;49.928;8.150;2024-03-25T00:11:29;983.17;;;5.02;100
75089;BME280;63673;49.928;8.150;2024-03-25T00:12:00;983.16;;;5;100
75089;BME280;63673;49.928;8.150;2024-03-25T00:12:31;983.16;;;5;100
75089;BME280;63673;49.928;8.150;2024-03-25T00:13:02;983.19;;;4.98;100
75089;BME280;63673;49.928;8.150;2024-03-25T00:13:33;983.19;;;4.98;100
75089;BME280;63673;49.928;8.150;2024-03-25T00:14:04;983.19;;;4.98;100
75089;BME280;63673;49.928;8.150;2024-03-25T00:14:35;983.19;;;4.98;100
75089;BME280;63673;49.928;8.150;2024-03-25T00:15:06;983.17;;;4.99;100
75089;BME280;63673;49.928;8.150;2024-03-25T00:15:36;983.17;;;4.99;100
75089;BME280;63673;49.928;8.150;2024-03-25T00:16:07;983.22;;;5;100
75089;BME280;63673;49.928;8.150;2024-03-25T00:16:39;983.22;;;5;100
75089;BME280;63673;49.928;8.150;2024-03-25T00:17:09;983.26;;;5;100
75089;BME280;63673;49.928;8.150;2024-03-25T00:17:40;983.26;;;5;100
75089;BME280;63673;49.928;8.150;2024-03-25T00:18:11;983.21;;;5;100
75089;BME280;63673;49.928;8.150;2024-03-25T00:18:43;983.21;;;5;100
75089;BME280;63673;49.928;8.150;2024-03-25T00:19:43;983.21;;;5;100
75089;BME280;63673;49.928;8.150;2024-03-25T00:20:14;983.26;;;4.99;100
75089;BME280;63673;49.928;8.150;2024-03-25T00:20:45;983.26;;;4.99;100
75089;BME280;63673;49.928;8.150;2024-03-25T00:21:16;983.21;;;5;100
75089;BME280;63673;49.928;8.150;2024-03-25T00:21:47;983.21;;;5;100
75089;BME280;63673;49.928;8.150;2024-03-25T00:22:18;983.22;;;5;100
75089;BME280;63673;49.928;8.150;2024-03-25T00:22:48;983.22;;;5;100
75089;BME280;63673;49.928;8.150;2024-03-25T00:23:19;983.24;;;5;100
75089;BME280;63673;49.928;8.150;2024-03-25T00:23:50;983.24;;;5;100
75089;BME280;63673;49.928;8.150;2024-03-25T00:24:21;983.25;;;5;100
75089;BME280;63673;49.928;8.150;2024-03-25T00:24:52;983.25;;;5;100
75089;BME280;63673;49.928;8.150;2024-03-25T00:25:23;983.25;;;4.99;100
75089;BME280;63673;49.928;8.150;2024-03-25T00:25:54;983.25;;;4.99;100
75089;BME280;63673;49.928;8.150;2024-03-25T00:26:25;983.25;;;4.99;100
75089;BME280;63673;49.928;8.150;2024-03-25T00:26:55;983.25;;;4.99;100
75089;BME280;63673;49.928;8.150;2024-03-25T00:27:26;983.23;;;4.98;100
75089;BME280;63673;49.928;8.150;2024-03-25T00:27:57;983.23;;;4.98;100
75089;BME280;63673;49.928;8.150;2024-03-25T00:28:28;983.28;;;4.98;100
75089;BME280;63673;49.928;8.150;2024-03-25T00:28:59;983.28;;;4.98;100
75089;BME280;63673;49.928;8.150;2024-03-25T00:29:30;983.32;;;4.99;100
75089;BME280;63673;49.928;8.150;2024-03-25T00:30:01;983.32;;;4.99;100
75089;BME280;63673;49.928;8.150;2024-03-25T00:30:31;983.35;;;5;100
75089;BME280;63673;49.928;8.150;2024-03-25T00:31:03;983.35;;;5;100
75089;BME280;63673;49.928;8.150;2024-03-25T00:31:33;983.31;;;4.99;100
75089;BME280;63673;49.928;8.150;2024-03-25T00:32:04;983.31;;;4.99;100
75089;BME280;63673;49.928;8.150;2024-03-25T00:32:35;983.34;;;5;100
75089;BME280;63673;49.928;8.150;2024-03-25T00:33:06;983.34;;;5;100
75089;BME280;63673;49.928;8.150;2024-03-25T00:33:37;983.31;;;5;100
75089;BME280;63673;49.928;8.150;2024-03-25T00:34:07;983.31;;;5;100
75089;BME280;63673;49.928;8.150;2024-03-25T00:34:38;983.34;;;5;100
75089;BME280;63673;49.928;8.150;2024-03-25T00:35:09;983.34;;;5;100
75089;BME280;63673;49.928;8.150;2024-03-25T00:35:40;983.31;;;5;100
75089;BME280;63673;49.928;8.150;2024-03-25T00:36:11;983.31;;;5;100
75089;BME280;63673;49.928;8.150;2024-03-25T00:36:42;983.32;;;5.01;100
75089;BME280;63673;49.928;8.150;2024-03-25T00:37:13;983.32;;;5.01;100
75089;BME280;63673;49.928;8.150;2024-03-25T00:37:44;983.3;;;5.01;100
75089;BME280;63673;49.928;8.150;2024-03-25T00:38:14;983.3;;;5.01;100
75089;BME280;63673;49.928;8.150;2024-03-25T00:38:45;983.28;;;5;100
75089;BME280;63673;49.928;8.150;2024-03-25T00:39:16;983.28;;;5;100
75089;BME280;63673;49.928;8.150;2024-03-25T00:39:47;983.36;;;5;100
75089;BME280;63673;49.928;8.150;2024-03-25T00:40:18;983.36;;;5;100
75089;BME280;63673;49.928;8.150;2024-03-25T00:40:49;983.34;;;4.99;100
75089;BME280;63673;49.928;8.150;2024-03-25T00:41:20;983.34;;;4.99;100
75089;BME280;63673;49.928;8.150;2024-03-25T00:41:50;983.3;;;4.98;100
75089;BME280;63673;49.928;8.150;2024-03-25T00:42:21;983.3;;;4.98;100
75089;BME280;63673;49.928;8.150;2024-03-25T00:42:52;983.35;;;4.97;100
75089;BME280;63673;49.928;8.150;2024-03-25T00:43:23;983.35;;;4.97;100
75089;BME280;63673;49.928;8.150;2024-03-25T00:43:54;983.34;;;4.96;100
75089;BME280;63673;49.928;8.150;2024-03-25T00:44:25;983.34;;;4.96;100
75089;BME280;63673;49.928;8.150;2024-03-25T00:44:56;983.26;;;4.94;100
75089;BME280;63673;49.928;8.150;2024-03-25T00:45:27;983.26;;;4.94;100
75089;BME280;63673;49.928;8.150;2024-03-25T00:45:57;983.32;;;4.93;100
75089;BME280;63673;49.928;8.150;2024-03-25T00:46:28;983.32;;;4.93;100
75089;BME280;63673;49.928;8.150;2024-03-25T00:46:59;983.36;;;4.92;100
75089;BME280;63673;49.928;8.150;2024-03-25T00:47:30;983.36;;;4.92;100
75089;BME280;63673;49.928;8.150;2024-03-25T00:48:01;983.36;;;4.91;100
75089;BME280;63673;49.928;8.150;2024-03-25T00:48:32;983.36;;;4.91;100
75089;BME280;63673;49.928;8.150;2024-03-25T00:49:03;983.33;;;4.9;100
75089;BME280;63673;49.928;8.150;2024-03-25T00:49:33;983.33;;;4.9;100
75089;BME280;63673;49.928;8.150;2024-03-25T00:50:05;983.36;;;4.89;100
75089;BME280;63673;49.928;8.150;2024-03-25T00:50:35;983.36;;;4.89;100
75089;BME280;63673;49.928;8.150;2024-03-25T00:51:06;983.37;;;4.89;100
75089;BME280;63673;49.928;8.150;2024-03-25T00:51:37;983.37;;;4.89;100
75089;BME280;63673;49.928;8.150;2024-03-25T00:52:08;983.35;;;4.89;100
75089;BME280;63673;49.928;8.150;2024-03-25T00:52:39;983.35;;;4.89;100
75089;BME280;63673;49.928;8.150;2024-03-25T00:53:10;983.29;;;4.87;100
75089;BME280;63673;49.928;8.150;2024-03-25T00:53:41;983.29;;;4.87;100
75089;BME280;63673;49.928;8.150;2024-03-25T00:54:11;983.35;;;4.86;100
75089;BME280;63673;49.928;8.150;2024-03-25T00:54:42;983.35;;;4.86;100
75089;BME280;63673;49.928;8.150;2024-03-25T00:55:13;983.33;;;4.86;100
75089;BME280;63673;49.928;8.150;2024-03-25T00:55:44;983.33;;;4.86;100
75089;BME280;63673;49.928;8.150;2024-03-25T00:56:15;983.31;;;4.85;100
75089;BME280;63673;49.928;8.150;2024-03-25T00:56:46;983.31;;;4.85;100
75089;BME280;63673;49.928;8.150;2024-03-25T00:57:16;983.32;;;4.84;100
75089;BME280;63673;49.928;8.150;2024-03-25T00:57:47;983.32;;;4.84;100
75089;BME280;63673;49.928;8.150;2024-03-25T00:58:18;983.3;;;4.83;100
75089;BME280;63673;49.928;8.150;2024-03-25T01:06:57;983.3;;;4.76;100
75089;BME280;63673;49.928;8.150;2024-03-25T01:07:58;983.27;;;4.76;100
75089;BME280;63673;49.928;8.150;2024-03-25T01:09:00;983.29;;;4.75;100
75089;BME280;63673;49.928;8.150;2024-03-25T01:10:02;983.29;;;4.75;100
75089;BME280;63673;49.928;8.150;2024-03-25T01:11:04;983.34;;;4.73;100
75089;BME280;63673;49.928;8.150;2024-03-25T01:12:06;983.28;;;4.73;100
75089;BME280;63673;49.928;8.150;2024-03-25T01:13:07;983.3;;;4.73;100
75089;BME280;63673;49.928;8.150;2024-03-25T01:14:09;983.25;;;4.71;100
75089;BME280;63673;49.928;8.150;2024-03-25T01:15:11;983.31;;;4.7;100
75089;BME280;63673;49.928;8.150;2024-03-25T01:16:12;983.3;;;4.69;100
75089;BME280;63673;49.928;8.150;2024-03-25T01:17:14;983.29;;;4.69;100
75089;BME280;63673;49.928;8.150;2024-03-25T01:18:16;983.31;;;4.68;100
75089;BME280;63673;49.928;8.150;2024-03-25T01:19:18;983.26;;;4.67;100
75089;BME280;63673;49.928;8.150;2024-03-25T01:20:19;983.3;;;4.66;100
75089;BME280;63673;49.928;8.150;2024-03-25T01:21:21;983.29;;;4.64;100
75089;BME280;63673;49.928;8.150;2024-03-25T01:22:23;983.28;;;4.62;100
75089;BME280;63673;49.928;8.150;2024-03-25T01:23:25;983.17;;;4.61;100
75089;BME280;63673;49.928;8.150;2024-03-25T01:24:26;983.32;;;4.6;100
75089;BME280;63673;49.928;8.150;2024-03-25T01:25:28;983.34;;;4.58;100
75089;BME280;63673;49.928;8.150;2024-03-25T01:26:30;983.23;;;4.57;100
75089;BME280;63673;49.928;8.150;2024-03-25T01:27:31;983.26;;;4.55;100
75089;BME280;63673;49.928;8.150;2024-03-25T01:28:33;983.28;;;4.55;100
75089;BME280;63673;49.928;8.150;2024-03-25T01:29:35;983.23;;;4.53;100
75089;BME280;63673;49.928;8.150;2024-03-25T01:30:37;983.28;;;4.51;100
75089;BME280;63673;49.928;8.150;2024-03-25T01:31:38;983.27;;;4.49;100
75089;BME280;63673;49.928;8.150;2024-03-25T01:32:40;983.28;;;4.49;100
75089;BME280;63673;49.928;8.150;2024-03-25T01:33:42;983.23;;;4.47;100
75089;BME280;63673;49.928;8.150;2024-03-25T01:34:44;983.28;;;4.45;100
75089;BME280;63673;49.928;8.150;2024-03-25T01:35:45;983.28;;;4.44;100
75089;BME280;63673;49.928;8.150;2024-03-25T01:36:47;983.29;;;4.43;100
75089;BME280;63673;49.928;8.150;2024-03-25T01:37:49;983.3;;;4.41;100
75089;BME280;63673;49.928;8.150;2024-03-25T01:38:50;983.25;;;4.4;100
75089;BME280;63673;49.928;8.150;2024-03-25T01:39:52;983.26;;;4.38;100
75089;BME280;63673;49.928;8.150;2024-03-25T01:40:54;983.21;;;4.37;100
75089;BME280;63673;49.928;8.150;2024-03-25T01:41:56;983.18;;;4.35;100
75089;BME280;63673;49.928;8.150;2024-03-25T01:42:58;983.18;;;4.34;100
75089;BME280;63673;49.928;8.150;2024-03-25T01:43:59;983.21;;;4.33;100
75089;BME280;63673;49.928;8.150;2024-03-25T01:45:01;983.19;;;4.32;100
75089;BME280;63673;49.928;8.150;2024-03-25T01:46:03;983.19;;;4.31;100
75089;BME280;63673;49.928;8.150;2024-03-25T01:47:04;983.19;;;4.3;100
75089;BME280;63673;49.928;8.150;2024-03-25T01:48:07;983.16;;;4.28;100
75089;BME280;63673;49.928;8.150;2024-03-25T01:49:08;983.2;;;4.27;100
75089;BME280;63673;49.928;8.150;2024-03-25T01:50:10;983.23;;;4.25;100
75089;BME280;63673;49.928;8.150;2024-03-25T01:51:11;983.24;;;4.24;100
75089;BME280;63673;49.928;8.150;2024-03-25T01:52:13;983.27;;;4.22;100
75089;BME280;63673;49.928;8.150;2024-03-25T01:53:15;983.28;;;4.21;100
75089;BME280;63673;49.928;8.150;2024-03-25T01:54:16;983.28;;;4.21;100
75089;BME280;63673;49.928;8.150;2024-03-25T01:55:20;983.35;;;4.2;100
75089;BME280;63673;49.928;8.150;2024-03-25T01:56:20;983.33;;;4.18;100
75089;BME280;63673;49.928;8.150;2024-03-25T01:57:22;983.26;;;4.16;100
75089;BME280;63673;49.928;8.150;2024-03-25T01:58:23;983.27;;;4.15;100
75089;BME280;63673;49.928;8.150;2024-03-25T01:59:25;983.24;;;4.13;100
75089;BME280;63673;49.928;8.150;2024-03-25T02:00:27;983.29;;;4.13;100
75089;BME280;63673;49.928;8.150;2024-03-25T02:01:29;983.35;;;4.1;100
75089;BME280;63673;49.928;8.150;2024-03-25T02:02:30;983.31;;;4.08;100
75089;BME280;63673;49.928;8.150;2024-03-25T02:03:32;983.34;;;4.05;100
75089;BME280;63673;49.928;8.150;2024-03-25T02:04:34;983.3;;;4.02;100
75089;BME280;63673;49.928;8.150;2024-03-25T02:05:36;983.29;;;3.99;100
75089;BME280;63673;49.928;8.150;2024-03-25T02:06:37;983.31;;;3.96;100
75089;BME280;63673;49.928;8.150;2024-03-25T02:07:39;983.31;;;3.92;100
75089;BME280;63673;49.928;8.150;2024-03-25T02:08:41;983.26;;;3.89;100
75089;BME280;63673;49.928;8.150;2024-03-25T02:09:42;983.3;;;3.84;100
75089;BME280;63673;49.928;8.150;2024-03-25T02:10:44;983.28;;;3.83;100
75089;BME280;63673;49.928;8.150;2024-03-25T02:11:46;983.29;;;3.8;100
75089;BME280;63673;49.928;8.150;2024-03-25T02:12:48;983.3;;;3.76;100
75089;BME280;63673;49.928;8.150;2024-03-25T02:13:50;983.28;;;3.73;100
75089;BME280;63673;49.928;8.150;2024-03-25T02:14:51;983.32;;;3.71;100
75089;BME280;63673;49.928;8.150;2024-03-25T02:15:53;983.3;;;3.69;100
75089;BME280;63673;49.928;8.150;2024-03-25T02:16:54;983.28;;;3.66;100
75089;BME280;63673;49.928;8.150;2024-03-25T02:17:56;983.27;;;3.65;100
75089;BME280;63673;49.928;8.150;2024-03-25T02:18:58;983.21;;;3.61;100
75089;BME280;63673;49.928;8.150;2024-03-25T02:20:00;983.26;;;3.58;100
75089;BME280;63673;49.928;8.150;2024-03-25T02:21:02;983.11;;;3.57;100
75089;BME280;63673;49.928;8.150;2024-03-25T02:22:03;983.26;;;3.54;100
75089;BME280;63673;49.928;8.150;2024-03-25T02:23:05;983.27;;;3.52;100
75089;BME280;63673;49.928;8.150;2024-03-25T02:24:08;983.32;;;3.49;100
75089;BME280;63673;49.928;8.150;2024-03-25T02:25:09;983.28;;;3.47;100
75089;BME280;63673;49.928;8.150;2024-03-25T02:26:10;983.26;;;3.46;100
75089;BME280;63673;49.928;8.150;2024-03-25T02:27:12;983.31;;;3.45;100
75089;BME280;63673;49.928;8.150;2024-03-25T02:28:14;983.29;;;3.45;100
75089;BME280;63673;49.928;8.150;2024-03-25T02:29:15;983.23;;;3.45;100
75089;BME280;63673;49.928;8.150;2024-03-25T02:30:17;983.29;;;3.46;100
75089;BME280;63673;49.928;8.150;2024-03-25T02:31:19;983.24;;;3.46;100
75089;BME280;63673;49.928;8.150;2024-03-25T02:32:21;983.25;;;3.47;100
75089;BME280;63673;49.928;8.150;2024-03-25T02:33:22;983.24;;;3.48;100
75089;BME280;63673;49.928;8.150;2024-03-25T02:34:24;983.2;;;3.49;100
75089;BME280;63673;49.928;8.150;2024-03-25T02:35:26;983.25;;;3.49;100
75089;BME280;63673;49.928;8.150;2024-03-25T02:36:28;983.25;;;3.49;100
75089;BME280;63673;49.928;8.150;2024-03-25T02:37:29;983.28;;;3.49;100
75089;BME280;63673;49.928;8.150;2024-03-25T02:38:31;983.27;;;3.49;100
75089;BME280;63673;49.928;8.150;2024-03-25T02:39:33;983.28;;;3.48;100
75089;BME280;63673;49.928;8.150;2024-03-25T02:40:35;983.26;;;3.48;100
75089;BME280;63673;49.928;8.150;2024-03-25T02:41:36;983.34;;;3.47;100
75089;BME280;63673;49.928;8.150;2024-03-25T02:42:38;983.31;;;3.44;100
75089;BME280;63673;49.928;8.150;2024-03-25T02:43:40;983.3;;;3.44;100
75089;BME280;63673;49.928;8.150;2024-03-25T02:44:41;983.33;;;3.43;100
75089;BME280;63673;49.928;8.150;2024-03-25T02:45:43;983.37;;;3.4;100
75089;BME280;63673;49.928;8.150;2024-03-25T02:46:45;983.33;;;3.39;100
75089;BME280;63673;49.928;8.150;2024-03-25T02:47:47;983.36;;;3.36;100
75089;BME280;63673;49.928;8.150;2024-03-25T02:48:48;983.34;;;3.35;100
75089;BME280;63673;49.928;8.150;2024-03-25T02:49:50;983.37;;;3.32;100
75089;BME280;63673;49.928;8.150;2024-03-25T02:50:52;983.36;;;3.28;100
75089;BME280;63673;49.928;8.150;2024-03-25T02:51:54;983.38;;;3.25;100
75089;BME280;63673;49.928;8.150;2024-03-25T02:52:55;983.38;;;3.23;100
75089;BME280;63673;49.928;8.150;2024-03-25T02:53:57;983.38;;;3.19;100
75089;BME280;63673;49.928;8.150;2024-03-25T02:54:59;983.39;;;3.16;100
75089;BME280;63673;49.928;8.150;2024-03-25T02:56:01;983.38;;;3.12;100
75089;BME280;63673;49.928;8.150;2024-03-25T02:57:02;983.43;;;3.11;100
75089;BME280;63673;49.928;8.150;2024-03-25T02:58:04;983.44;;;3.07;100
75089;BME280;63673;49.928;8.150;2024-03-25T02:59:06;983.42;;;3.05;100
75089;BME280;63673;49.928;8.150;2024-03-25T03:00:08;983.4;;;3.02;100
75089;BME280;63673;49.928;8.150;2024-03-25T03:01:09;983.38;;;3.01;100
75089;BME280;63673;49.928;8.150;2024-03-25T03:02:11;983.39;;;3.01;100
75089;BME280;63673;49.928;8.150;2024-03-25T03:03:13;983.38;;;3;100
75089;BME280;63673;49.928;8.150;2024-03-25T03:04:14;983.35;;;3.01;100
75089;BME280;63673;49.928;8.150;2024-03-25T03:05:16;983.33;;;3.02;100
75089;BME280;63673;49.928;8.150;2024-03-25T03:06:18;983.32;;;3.03;100
75089;BME280;63673;49.928;8.150;2024-03-25T03:07:20;983.35;;;3.03;100
75089;BME280;63673;49.928;8.150;2024-03-25T03:08:21;983.4;;;3.05;100
75089;BME280;63673;49.928;8.150;2024-03-25T03:09:23;983.38;;;3.05;100
75089;BME280;63673;49.928;8.150;2024-03-25T03:10:25;983.36;;;3.07;100
75089;BME280;63673;49.928;8.150;2024-03-25T03:11:26;983.36;;;3.07;100
75089;BME280;63673;49.928;8.150;2024-03-25T03:12:28;983.37;;;3.08;100
75089;BME280;63673;49.928;8.150;2024-03-25T03:13:30;983.37;;;3.09;100
75089;BME280;63673;49.928;8.150;2024-03-25T03:14:32;983.38;;;3.09;100
75089;BME280;63673;49.928;8.150;2024-03-25T03:15:33;983.34;;;3.11;100
75089;BME280;63673;49.928;8.150;2024-03-25T03:16:35;983.35;;;3.12;100
75089;BME280;63673;49.928;8.150;2024-03-25T03:17:37;983.33;;;3.12;100
75089;BME280;63673;49.928;8.150;2024-03-25T03:18:39;983.31;;;3.14;100
75089;BME280;63673;49.928;8.150;2024-03-25T03:19:40;983.37;;;3.15;100
75089;BME280;63673;49.928;8.150;2024-03-25T03:20:42;983.36;;;3.15;100
75089;BME280;63673;49.928;8.150;2024-03-25T03:21:44;983.35;;;3.15;100
75089;BME280;63673;49.928;8.150;2024-03-25T03:22:46;983.33;;;3.17;100
75089;BME280;63673;49.928;8.150;2024-03-25T03:23:47;983.36;;;3.17;100
75089;BME280;63673;49.928;8.150;2024-03-25T03:24:49;983.35;;;3.19;100
75089;BME280;63673;49.928;8.150;2024-03-25T03:25:51;983.39;;;3.18;100
75089;BME280;63673;49.928;8.150;2024-03-25T03:26:52;983.33;;;3.18;100
75089;BME280;63673;49.928;8.150;2024-03-25T03:27:54;983.29;;;3.18;100
75089;BME280;63673;49.928;8.150;2024-03-25T03:28:56;983.32;;;3.19;100
75089;BME280;63673;49.928;8.150;2024-03-25T03:29:58;983.33;;;3.18;100
75089;BME280;63673;49.928;8.150;2024-03-25T03:30:59;983.28;;;3.17;100
75089;BME280;63673;49.928;8.150;2024-03-25T03:32:01;983.31;;;3.17;100
75089;BME280;63673;49.928;8.150;2024-03-25T03:33:03;983.34;;;3.16;100
75089;BME280;63673;49.928;8.150;2024-03-25T03:34:05;983.33;;;3.14;100
75089;BME280;63673;49.928;8.150;2024-03-25T03:35:07;983.34;;;3.14;100
75089;BME280;63673;49.928;8.150;2024-03-25T03:36:08;983.29;;;3.13;100
75089;BME280;63673;49.928;8.150;2024-03-25T03:37:10;983.24;;;3.12;100
75089;BME280;63673;49.928;8.150;2024-03-25T03:38:12;983.3;;;3.1;100
75089;BME280;63673;49.928;8.150;2024-03-25T03:39:14;983.31;;;3.1;100
75089;BME280;63673;49.928;8.150;2024-03-25T03:40:15;983.32;;;3.09;100
75089;BME280;63673;49.928;8.150;2024-03-25T03:41:17;983.33;;;3.08;100
75089;BME280;63673;49.928;8.150;2024-03-25T03:42:18;983.35;;;3.05;100
75089;BME280;63673;49.928;8.150;2024-03-25T03:43:21;983.38;;;3.03;100
75089;BME280;63673;49.928;8.150;2024-03-25T03:44:22;983.35;;;3;100
75089;BME280;63673;49.928;8.150;2024-03-25T03:45:24;983.34;;;2.98;100
75089;BME280;63673;49.928;8.150;2024-03-25T03:46:25;983.32;;;2.95;100
75089;BME280;63673;49.928;8.150;2024-03-25T03:47:27;983.32;;;2.93;100
75089;BME280;63673;49.928;8.150;2024-03-25T03:48:29;983.33;;;2.9;100
75089;BME280;63673;49.928;8.150;2024-03-25T03:49:31;983.27;;;2.87;100
75089;BME280;63673;49.928;8.150;2024-03-25T03:50:32;983.28;;;2.83;100
75089;BME280;63673;49.928;8.150;2024-03-25T03:51:34;983.33;;;2.8;100
75089;BME280;63673;49.928;8.150;2024-03-25T03:52:36;983.33;;;2.76;100
75089;BME280;63673;49.928;8.150;2024-03-25T03:53:38;983.31;;;2.73;100
75089;BME280;63673;49.928;8.150;2024-03-25T03:54:39;983.3;;;2.7;100
75089;BME280;63673;49.928;8.150;2024-03-25T03:55:41;983.34;;;2.65;100
75089;BME280;63673;49.928;8.150;2024-03-25T03:56:43;983.27;;;2.62;100
75089;BME280;63673;49.928;8.150;2024-03-25T03:57:44;983.35;;;2.58;100
75089;BME280;63673;49.928;8.150;2024-03-25T03:58:46;983.32;;;2.54;100
75089;BME280;63673;49.928;8.150;2024-03-25T03:59:48;983.35;;;2.51;100
75089;BME280;63673;49.928;8.150;2024-03-25T04:00:50;983.36;;;2.49;100
75089;BME280;63673;49.928;8.150;2024-03-25T04:01:51;983.31;;;2.46;100
75089;BME280;63673;49.928;8.150;2024-03-25T04:02:53;983.31;;;2.44;100
75089;BME280;63673;49.928;8.150;2024-03-25T04:03:55;983.26;;;2.43;100
75089;BME280;63673;49.928;8.150;2024-03-25T04:04:57;983.34;;;2.4;100
75089;BME280;63673;49.928;8.150;2024-03-25T04:05:58;983.3;;;2.38;100
75089;BME280;63673;49.928;8.150;2024-03-25T04:07:01;983.29;;;2.36;100
75089;BME280;63673;49.928;8.150;2024-03-25T04:08:02;983.33;;;2.32;100
75089;BME280;63673;49.928;8.150;2024-03-25T04:09:04;983.33;;;2.28;100
75089;BME280;63673;49.928;8.150;2024-03-25T04:10:06;983.37;;;2.26;100
75089;BME280;63673;49.928;8.150;2024-03-25T04:11:07;983.28;;;2.23;100
75089;BME280;63673;49.928;8.150;2024-03-25T04:12:09;983.32;;;2.2;100
75089;BME280;63673;49.928;8.150;2024-03-25T04:13:10;983.28;;;2.17;100
75089;BME280;63673;49.928;8.150;2024-03-25T04:14:12;983.3;;;2.14;100
75089;BME280;63673;49.928;8.150;2024-03-25T04:15:14;983.23;;;2.11;100
75089;BME280;63673;49.928;8.150;2024-03-25T04:16:16;983.24;;;2.09;100
75089;BME280;63673;49.928;8.150;2024-03-25T04:17:17;983.26;;;2.05;100
75089;BME280;63673;49.928;8.150;2024-03-25T04:18:19;983.3;;;2.02;100
75089;BME280;63673;49.928;8.150;2024-03-25T04:19:23;983.29;;;1.99;100
75089;BME280;63673;49.928;8.150;2024-03-25T04:20:23;983.29;;;1.95;100
75089;BME280;63673;49.928;8.150;2024-03-25T04:21:24;983.25;;;1.92;100
75089;BME280;63673;49.928;8.150;2024-03-25T04:22:26;983.23;;;1.89;100
75089;BME280;63673;49.928;8.150;2024-03-25T04:23:28;983.21;;;1.87;100
75089;BME280;63673;49.928;8.150;2024-03-25T04:24:30;983.21;;;1.83;100
75089;BME280;63673;49.928;8.150;2024-03-25T04:25:31;983.24;;;1.81;100
75089;BME280;63673;49.928;8.150;2024-03-25T04:26:33;983.27;;;1.79;100
75089;BME280;63673;49.928;8.150;2024-03-25T04:27:35;983.26;;;1.77;100
75089;BME280;63673;49.928;8.150;2024-03-25T04:28:36;983.26;;;1.75;100
75089;BME280;63673;49.928;8.150;2024-03-25T04:29:38;983.3;;;1.73;100
75089;BME280;63673;49.928;8.150;2024-03-25T04:30:40;983.26;;;1.73;100
75089;BME280;63673;49.928;8.150;2024-03-25T04:31:42;983.26;;;1.73;100
75089;BME280;63673;49.928;8.150;2024-03-25T04:32:44;983.29;;;1.71;100
75089;BME280;63673;49.928;8.150;2024-03-25T04:33:45;983.21;;;1.71;100
75089;BME280;63673;49.928;8.150;2024-03-25T04:34:47;983.24;;;1.71;100
75089;BME280;63673;49.928;8.150;2024-03-25T04:35:49;983.19;;;1.71;100
75089;BME280;63673;49.928;8.150;2024-03-25T04:36:50;983.24;;;1.72;100
75089;BME280;63673;49.928;8.150;2024-03-25T04:37:53;983.24;;;1.72;100
75089;BME280;63673;49.928;8.150;2024-03-25T04:38:54;983.2;;;1.72;100
75089;BME280;63673;49.928;8.150;2024-03-25T04:39:56;983.21;;;1.73;100
75089;BME280;63673;49.928;8.150;2024-03-25T04:40:57;983.21;;;1.74;100
75089;BME280;63673;49.928;8.150;2024-03-25T04:41:59;983.22;;;1.75;100
75089;BME280;63673;49.928;8.150;2024-03-25T04:43:01;983.22;;;1.75;100
75089;BME280;63673;49.928;8.150;2024-03-25T04:44:03;983.29;;;1.76;100
75089;BME280;63673;49.928;8.150;2024-03-25T04:45:05;983.32;;;1.76;100
75089;BME280;63673;49.928;8.150;2024-03-25T04:46:06;983.3;;;1.76;100
75089;BME280;63673;49.928;8.150;2024-03-25T04:47:08;983.32;;;1.76;100
75089;BME280;63673;49.928;8.150;2024-03-25T04:48:09;983.33;;;1.76;100
75089;BME280;63673;49.928;8.150;2024-03-25T04:49:11;983.35;;;1.76;100
75089;BME280;63673;49.928;8.150;2024-03-25T04:50:13;983.34;;;1.76;100
75089;BME280;63673;49.928;8.150;2024-03-25T04:51:15;983.39;;;1.76;100
75089;BME280;63673;49.928;8.150;2024-03-25T04:52:16;983.39;;;1.76;100
75089;BME280;63673;49.928;8.150;2024-03-25T04:53:18;983.43;;;1.76;100
75089;BME280;63673;49.928;8.150;2024-03-25T04:54:20;983.5;;;1.75;100
75089;BME280;63673;49.928;8.150;2024-03-25T04:55:22;983.44;;;1.74;100
75089;BME280;63673;49.928;8.150;2024-03-25T04:56:23;983.47;;;1.74;100
75089;BME280;63673;49.928;8.150;2024-03-25T04:57:25;983.43;;;1.73;100
75089;BME280;63673;49.928;8.150;2024-03-25T04:58:27;983.44;;;1.71;100
75089;BME280;63673;49.928;8.150;2024-03-25T04:59:28;983.43;;;1.7;100
75089;BME280;63673;49.928;8.150;2024-03-25T05:00:30;983.48;;;1.68;100
75089;BME280;63673;49.928;8.150;2024-03-25T05:01:32;983.45;;;1.67;100
75089;BME280;63673;49.928;8.150;2024-03-25T05:02:34;983.46;;;1.65;100